Chernihiv, Ukraine
Current Conditions -  °F | °C
As of 12:30 PM on Wednesday 22 Oct 2014 (Local Time) from UMGG Reporting Station
Overcast Overcast  
Wind Chill: 30°   Ceiling: 1400
Heat Index: 37°   Visibility: 6mi
Dew Point: 32°   Wind: 11mph
Humidity: 81%   Direction: 70°ENE
Pressure: 29.85"   Gusts: 18mph
Location:  51.5°N, 31.3°E
Report Text: UMGG 220930Z 07005G08MPS 9000 OVC014 03/00 Q1011 R28/290050NOSIG
Loading
Personal Weather Stations






























Interactive Weather Map
Tropical Storm Tracking
New forecast layout! Learn more

10-Day Weather Forecast

Advertisements
Track Severe Weather on mobile